sensor_id;sensor_type;location;lat;lon;timestamp;P1;durP1;ratioP1;P2;durP2;ratioP2
71734;SDS011;59577;52.122;5.406;2023-04-06T00:00:37;6.47;;;3.95;;
71734;SDS011;59577;52.122;5.406;2023-04-06T00:03:04;8.50;;;4.20;;
71734;SDS011;59577;52.122;5.406;2023-04-06T00:05:30;7.80;;;4.03;;
71734;SDS011;59577;52.122;5.406;2023-04-06T00:07:57;10.48;;;4.60;;
71734;SDS011;59577;52.122;5.406;2023-04-06T00:10:24;11.30;;;4.43;;
71734;SDS011;59577;52.122;5.406;2023-04-06T00:12:51;11.05;;;5.10;;
71734;SDS011;59577;52.122;5.406;2023-04-06T00:15:18;8.98;;;5.05;;
71734;SDS011;59577;52.122;5.406;2023-04-06T00:17:45;10.27;;;4.77;;
71734;SDS011;59577;52.122;5.406;2023-04-06T00:20:11;8.52;;;4.85;;
71734;SDS011;59577;52.122;5.406;2023-04-06T00:22:38;10.20;;;4.45;;
71734;SDS011;59577;52.122;5.406;2023-04-06T00:25:05;8.18;;;4.43;;
71734;SDS011;59577;52.122;5.406;2023-04-06T00:27:31;8.20;;;4.68;;
71734;SDS011;59577;52.122;5.406;2023-04-06T00:29:58;10.27;;;4.80;;
71734;SDS011;59577;52.122;5.406;2023-04-06T00:32:24;8.98;;;4.18;;
71734;SDS011;59577;52.122;5.406;2023-04-06T00:34:51;7.57;;;4.07;;
71734;SDS011;59577;52.122;5.406;2023-04-06T00:37:18;9.13;;;4.32;;
71734;SDS011;59577;52.122;5.406;2023-04-06T00:39:45;9.75;;;4.95;;
71734;SDS011;59577;52.122;5.406;2023-04-06T00:42:12;11.77;;;4.87;;
71734;SDS011;59577;52.122;5.406;2023-04-06T00:44:42;8.98;;;4.20;;
71734;SDS011;59577;52.122;5.406;2023-04-06T00:47:10;6.32;;;4.13;;
71734;SDS011;59577;52.122;5.406;2023-04-06T00:49:36;9.43;;;5.20;;
71734;SDS011;59577;52.122;5.406;2023-04-06T00:52:06;13.02;;;4.70;;
71734;SDS011;59577;52.122;5.406;2023-04-06T00:54:32;8.37;;;5.20;;
71734;SDS011;59577;52.122;5.406;2023-04-06T00:56:59;9.07;;;4.22;;
71734;SDS011;59577;52.122;5.406;2023-04-06T00:59:26;6.80;;;4.28;;
71734;SDS011;59577;52.122;5.406;2023-04-06T01:01:55;8.88;;;4.60;;
71734;SDS011;59577;52.122;5.406;2023-04-06T01:04:22;10.40;;;4.57;;
71734;SDS011;59577;52.122;5.406;2023-04-06T01:06:51;7.90;;;4.57;;
71734;SDS011;59577;52.122;5.406;2023-04-06T01:09:17;7.35;;;4.15;;
71734;SDS011;59577;52.122;5.406;2023-04-06T01:11:44;8.55;;;4.20;;
71734;SDS011;59577;52.122;5.406;2023-04-06T01:14:11;9.05;;;5.40;;
71734;SDS011;59577;52.122;5.406;2023-04-06T01:16:38;10.75;;;4.95;;
71734;SDS011;59577;52.122;5.406;2023-04-06T01:19:11;8.80;;;4.77;;
71734;SDS011;59577;52.122;5.406;2023-04-06T01:21:39;10.07;;;4.88;;
71734;SDS011;59577;52.122;5.406;2023-04-06T01:24:06;7.82;;;4.47;;
71734;SDS011;59577;52.122;5.406;2023-04-06T01:26:34;7.60;;;5.28;;
71734;SDS011;59577;52.122;5.406;2023-04-06T01:29:02;10.40;;;5.45;;
71734;SDS011;59577;52.122;5.406;2023-04-06T01:31:29;11.93;;;5.17;;
71734;SDS011;59577;52.122;5.406;2023-04-06T01:33:56;10.88;;;5.38;;
71734;SDS011;59577;52.122;5.406;2023-04-06T01:36:22;11.05;;;5.90;;
71734;SDS011;59577;52.122;5.406;2023-04-06T01:38:49;9.48;;;5.57;;
71734;SDS011;59577;52.122;5.406;2023-04-06T01:41:16;11.55;;;5.45;;
71734;SDS011;59577;52.122;5.406;2023-04-06T01:43:42;11.67;;;6.10;;
71734;SDS011;59577;52.122;5.406;2023-04-06T01:46:09;8.45;;;4.88;;
71734;SDS011;59577;52.122;5.406;2023-04-06T01:48:37;11.20;;;6.07;;
71734;SDS011;59577;52.122;5.406;2023-04-06T01:51:03;10.45;;;5.60;;
71734;SDS011;59577;52.122;5.406;2023-04-06T01:53:30;10.85;;;5.70;;
71734;SDS011;59577;52.122;5.406;2023-04-06T01:55:57;11.27;;;5.10;;
71734;SDS011;59577;52.122;5.406;2023-04-06T01:58:23;9.73;;;5.47;;
71734;SDS011;59577;52.122;5.406;2023-04-06T02:00:50;9.75;;;5.65;;
71734;SDS011;59577;52.122;5.406;2023-04-06T02:03:16;9.25;;;5.28;;
71734;SDS011;59577;52.122;5.406;2023-04-06T02:05:43;9.45;;;5.25;;
71734;SDS011;59577;52.122;5.406;2023-04-06T02:08:11;7.73;;;4.80;;
71734;SDS011;59577;52.122;5.406;2023-04-06T02:10:37;8.27;;;4.68;;
71734;SDS011;59577;52.122;5.406;2023-04-06T02:13:03;9.90;;;4.85;;
71734;SDS011;59577;52.122;5.406;2023-04-06T02:15:30;11.90;;;4.95;;
71734;SDS011;59577;52.122;5.406;2023-04-06T02:17:57;9.30;;;5.07;;
71734;SDS011;59577;52.122;5.406;2023-04-06T02:20:25;9.83;;;5.07;;
71734;SDS011;59577;52.122;5.406;2023-04-06T02:22:52;11.60;;;5.38;;
71734;SDS011;59577;52.122;5.406;2023-04-06T02:25:18;9.35;;;5.45;;
71734;SDS011;59577;52.122;5.406;2023-04-06T02:27:45;8.13;;;5.15;;
71734;SDS011;59577;52.122;5.406;2023-04-06T02:30:11;8.63;;;5.65;;
71734;SDS011;59577;52.122;5.406;2023-04-06T02:32:38;8.50;;;4.87;;
71734;SDS011;59577;52.122;5.406;2023-04-06T02:35:05;12.93;;;5.18;;
71734;SDS011;59577;52.122;5.406;2023-04-06T02:37:31;8.40;;;4.93;;
71734;SDS011;59577;52.122;5.406;2023-04-06T02:39:58;11.88;;;5.03;;
71734;SDS011;59577;52.122;5.406;2023-04-06T02:42:24;7.88;;;4.68;;
71734;SDS011;59577;52.122;5.406;2023-04-06T02:44:51;11.60;;;5.00;;
71734;SDS011;59577;52.122;5.406;2023-04-06T02:47:17;7.22;;;4.88;;
71734;SDS011;59577;52.122;5.406;2023-04-06T02:49:44;8.15;;;5.20;;
71734;SDS011;59577;52.122;5.406;2023-04-06T02:52:13;10.23;;;5.57;;
71734;SDS011;59577;52.122;5.406;2023-04-06T02:54:39;8.15;;;5.07;;
71734;SDS011;59577;52.122;5.406;2023-04-06T02:57:06;10.23;;;4.83;;
71734;SDS011;59577;52.122;5.406;2023-04-06T02:59:33;9.55;;;4.95;;
71734;SDS011;59577;52.122;5.406;2023-04-06T03:02:00;9.40;;;5.13;;
71734;SDS011;59577;52.122;5.406;2023-04-06T03:04:26;8.60;;;5.55;;
71734;SDS011;59577;52.122;5.406;2023-04-06T03:06:53;9.90;;;5.05;;
71734;SDS011;59577;52.122;5.406;2023-04-06T03:09:21;9.07;;;5.00;;
71734;SDS011;59577;52.122;5.406;2023-04-06T03:11:48;8.10;;;5.20;;
71734;SDS011;59577;52.122;5.406;2023-04-06T03:14:14;7.78;;;4.65;;
71734;SDS011;59577;52.122;5.406;2023-04-06T03:16:43;9.18;;;5.45;;
71734;SDS011;59577;52.122;5.406;2023-04-06T03:19:10;8.68;;;5.57;;
71734;SDS011;59577;52.122;5.406;2023-04-06T03:21:36;9.70;;;4.87;;
71734;SDS011;59577;52.122;5.406;2023-04-06T03:24:03;8.65;;;5.22;;
71734;SDS011;59577;52.122;5.406;2023-04-06T03:26:31;8.95;;;5.50;;
71734;SDS011;59577;52.122;5.406;2023-04-06T03:28:57;8.43;;;4.68;;
71734;SDS011;59577;52.122;5.406;2023-04-06T03:31:24;8.80;;;4.85;;
71734;SDS011;59577;52.122;5.406;2023-04-06T03:33:50;9.60;;;5.43;;
71734;SDS011;59577;52.122;5.406;2023-04-06T03:36:17;9.27;;;5.22;;
71734;SDS011;59577;52.122;5.406;2023-04-06T03:38:43;8.63;;;5.38;;
71734;SDS011;59577;52.122;5.406;2023-04-06T03:41:10;9.43;;;5.30;;
71734;SDS011;59577;52.122;5.406;2023-04-06T03:43:36;9.80;;;5.57;;
71734;SDS011;59577;52.122;5.406;2023-04-06T03:46:03;7.53;;;4.70;;
71734;SDS011;59577;52.122;5.406;2023-04-06T03:48:30;6.05;;;4.40;;
71734;SDS011;59577;52.122;5.406;2023-04-06T03:50:56;7.68;;;5.05;;
71734;SDS011;59577;52.122;5.406;2023-04-06T03:53:23;7.07;;;5.13;;
71734;SDS011;59577;52.122;5.406;2023-04-06T03:55:49;7.90;;;4.95;;
71734;SDS011;59577;52.122;5.406;2023-04-06T03:58:16;10.83;;;5.23;;
71734;SDS011;59577;52.122;5.406;2023-04-06T04:00:43;9.02;;;5.32;;
71734;SDS011;59577;52.122;5.406;2023-04-06T04:03:09;9.02;;;5.07;;
71734;SDS011;59577;52.122;5.406;2023-04-06T04:05:36;9.88;;;6.07;;
71734;SDS011;59577;52.122;5.406;2023-04-06T04:08:03;11.40;;;5.28;;
71734;SDS011;59577;52.122;5.406;2023-04-06T04:10:29;10.80;;;5.20;;
71734;SDS011;59577;52.122;5.406;2023-04-06T04:12:56;11.20;;;5.15;;
71734;SDS011;59577;52.122;5.406;2023-04-06T04:15:22;9.57;;;5.00;;
71734;SDS011;59577;52.122;5.406;2023-04-06T04:17:49;7.03;;;4.60;;
71734;SDS011;59577;52.122;5.406;2023-04-06T04:20:16;9.15;;;5.47;;
71734;SDS011;59577;52.122;5.406;2023-04-06T04:22:43;9.47;;;5.57;;
71734;SDS011;59577;52.122;5.406;2023-04-06T04:25:09;7.60;;;4.65;;
71734;SDS011;59577;52.122;5.406;2023-04-06T04:27:36;7.82;;;4.28;;
71734;SDS011;59577;52.122;5.406;2023-04-06T04:30:02;8.25;;;5.20;;
71734;SDS011;59577;52.122;5.406;2023-04-06T04:32:29;8.68;;;4.95;;
71734;SDS011;59577;52.122;5.406;2023-04-06T04:34:55;7.87;;;5.20;;
71734;SDS011;59577;52.122;5.406;2023-04-06T04:37:22;7.80;;;4.93;;
71734;SDS011;59577;52.122;5.406;2023-04-06T04:39:48;7.53;;;4.82;;
71734;SDS011;59577;52.122;5.406;2023-04-06T04:42:15;12.00;;;5.38;;
71734;SDS011;59577;52.122;5.406;2023-04-06T04:44:41;8.02;;;4.88;;
71734;SDS011;59577;52.122;5.406;2023-04-06T04:47:08;8.03;;;5.03;;
71734;SDS011;59577;52.122;5.406;2023-04-06T04:49:34;7.88;;;4.88;;
71734;SDS011;59577;52.122;5.406;2023-04-06T04:52:01;8.93;;;5.43;;
71734;SDS011;59577;52.122;5.406;2023-04-06T04:54:27;9.70;;;5.43;;
71734;SDS011;59577;52.122;5.406;2023-04-06T04:56:54;8.10;;;5.05;;
71734;SDS011;59577;52.122;5.406;2023-04-06T04:59:20;10.87;;;6.17;;
71734;SDS011;59577;52.122;5.406;2023-04-06T05:01:47;10.73;;;5.45;;
71734;SDS011;59577;52.122;5.406;2023-04-06T05:04:20;8.68;;;5.22;;
71734;SDS011;59577;52.122;5.406;2023-04-06T05:06:47;10.80;;;6.75;;
71734;SDS011;59577;52.122;5.406;2023-04-06T05:09:13;10.55;;;5.75;;
71734;SDS011;59577;52.122;5.406;2023-04-06T05:11:40;13.13;;;6.50;;
71734;SDS011;59577;52.122;5.406;2023-04-06T05:14:06;12.50;;;6.30;;
71734;SDS011;59577;52.122;5.406;2023-04-06T05:16:33;15.23;;;6.97;;
71734;SDS011;59577;52.122;5.406;2023-04-06T05:19:14;10.35;;;6.25;;
71734;SDS011;59577;52.122;5.406;2023-04-06T05:21:41;8.02;;;5.72;;
71734;SDS011;59577;52.122;5.406;2023-04-06T05:24:07;14.30;;;7.20;;
71734;SDS011;59577;52.122;5.406;2023-04-06T05:26:34;11.07;;;6.43;;
71734;SDS011;59577;52.122;5.406;2023-04-06T05:29:01;12.45;;;5.90;;
71734;SDS011;59577;52.122;5.406;2023-04-06T05:31:28;13.43;;;6.55;;
71734;SDS011;59577;52.122;5.406;2023-04-06T05:33:56;20.33;;;6.63;;
71734;SDS011;59577;52.122;5.406;2023-04-06T05:36:23;14.17;;;7.37;;
71734;SDS011;59577;52.122;5.406;2023-04-06T05:38:52;15.48;;;7.22;;
71734;SDS011;59577;52.122;5.406;2023-04-06T05:41:19;16.50;;;7.55;;
71734;SDS011;59577;52.122;5.406;2023-04-06T05:43:46;13.10;;;6.38;;
71734;SDS011;59577;52.122;5.406;2023-04-06T05:46:12;12.57;;;6.75;;
71734;SDS011;59577;52.122;5.406;2023-04-06T05:48:39;13.53;;;7.13;;
71734;SDS011;59577;52.122;5.406;2023-04-06T05:51:06;17.95;;;7.90;;
71734;SDS011;59577;52.122;5.406;2023-04-06T05:53:32;12.32;;;6.78;;
71734;SDS011;59577;52.122;5.406;2023-04-06T05:56:02;15.32;;;7.57;;
71734;SDS011;59577;52.122;5.406;2023-04-06T05:58:29;15.55;;;7.32;;
71734;SDS011;59577;52.122;5.406;2023-04-06T06:00:59;14.47;;;7.50;;
71734;SDS011;59577;52.122;5.406;2023-04-06T06:03:26;15.73;;;7.00;;
71734;SDS011;59577;52.122;5.406;2023-04-06T06:05:53;19.73;;;8.05;;
71734;SDS011;59577;52.122;5.406;2023-04-06T06:08:19;11.57;;;7.22;;
71734;SDS011;59577;52.122;5.406;2023-04-06T06:10:45;10.70;;;6.95;;
71734;SDS011;59577;52.122;5.406;2023-04-06T06:13:12;10.83;;;6.87;;
71734;SDS011;59577;52.122;5.406;2023-04-06T06:15:38;12.80;;;7.85;;
71734;SDS011;59577;52.122;5.406;2023-04-06T06:18:05;13.45;;;7.38;;
71734;SDS011;59577;52.122;5.406;2023-04-06T06:20:31;15.07;;;7.60;;
71734;SDS011;59577;52.122;5.406;2023-04-06T06:22:58;13.00;;;7.55;;
71734;SDS011;59577;52.122;5.406;2023-04-06T06:25:25;16.37;;;7.77;;
71734;SDS011;59577;52.122;5.406;2023-04-06T06:27:52;20.77;;;8.40;;
71734;SDS011;59577;52.122;5.406;2023-04-06T06:30:22;12.20;;;7.15;;
71734;SDS011;59577;52.122;5.406;2023-04-06T06:32:50;14.18;;;8.13;;
71734;SDS011;59577;52.122;5.406;2023-04-06T06:35:17;15.30;;;8.32;;
71734;SDS011;59577;52.122;5.406;2023-04-06T06:37:43;14.43;;;8.03;;
71734;SDS011;59577;52.122;5.406;2023-04-06T06:40:10;16.55;;;7.72;;
71734;SDS011;59577;52.122;5.406;2023-04-06T06:42:39;12.10;;;7.18;;
71734;SDS011;59577;52.122;5.406;2023-04-06T06:45:06;13.73;;;7.90;;
71734;SDS011;59577;52.122;5.406;2023-04-06T06:47:33;13.35;;;7.85;;
71734;SDS011;59577;52.122;5.406;2023-04-06T06:50:00;16.17;;;8.17;;
71734;SDS011;59577;52.122;5.406;2023-04-06T06:52:26;15.15;;;8.32;;
71734;SDS011;59577;52.122;5.406;2023-04-06T06:54:54;16.70;;;8.35;;
71734;SDS011;59577;52.122;5.406;2023-04-06T06:57:23;13.48;;;7.85;;
71734;SDS011;59577;52.122;5.406;2023-04-06T06:59:49;16.98;;;8.73;;
71734;SDS011;59577;52.122;5.406;2023-04-06T07:02:16;14.83;;;8.70;;
71734;SDS011;59577;52.122;5.406;2023-04-06T07:04:42;16.48;;;8.48;;
71734;SDS011;59577;52.122;5.406;2023-04-06T07:07:09;16.02;;;8.85;;
71734;SDS011;59577;52.122;5.406;2023-04-06T07:09:36;20.90;;;9.20;;
71734;SDS011;59577;52.122;5.406;2023-04-06T07:12:03;19.58;;;10.25;;
71734;SDS011;59577;52.122;5.406;2023-04-06T07:14:29;17.63;;;9.73;;
71734;SDS011;59577;52.122;5.406;2023-04-06T07:16:56;17.52;;;9.77;;
71734;SDS011;59577;52.122;5.406;2023-04-06T07:19:23;17.58;;;9.18;;
71734;SDS011;59577;52.122;5.406;2023-04-06T07:21:49;19.63;;;9.13;;
71734;SDS011;59577;52.122;5.406;2023-04-06T07:24:16;15.80;;;9.38;;
71734;SDS011;59577;52.122;5.406;2023-04-06T07:26:42;20.67;;;10.37;;
71734;SDS011;59577;52.122;5.406;2023-04-06T07:29:09;18.98;;;9.50;;
71734;SDS011;59577;52.122;5.406;2023-04-06T07:31:35;18.63;;;9.10;;
71734;SDS011;59577;52.122;5.406;2023-04-06T07:34:02;18.08;;;9.20;;
71734;SDS011;59577;52.122;5.406;2023-04-06T07:36:29;21.52;;;9.90;;
71734;SDS011;59577;52.122;5.406;2023-04-06T07:38:55;19.30;;;9.37;;
71734;SDS011;59577;52.122;5.406;2023-04-06T07:41:22;26.75;;;9.57;;
71734;SDS011;59577;52.122;5.406;2023-04-06T07:43:49;21.50;;;9.93;;
71734;SDS011;59577;52.122;5.406;2023-04-06T07:46:16;19.80;;;9.98;;
71734;SDS011;59577;52.122;5.406;2023-04-06T07:48:42;15.80;;;9.32;;
71734;SDS011;59577;52.122;5.406;2023-04-06T07:51:09;17.00;;;9.47;;
71734;SDS011;59577;52.122;5.406;2023-04-06T07:53:44;19.73;;;9.32;;
71734;SDS011;59577;52.122;5.406;2023-04-06T07:56:11;19.50;;;10.25;;
71734;SDS011;59577;52.122;5.406;2023-04-06T07:58:41;20.85;;;10.57;;
71734;SDS011;59577;52.122;5.406;2023-04-06T08:01:08;19.23;;;9.82;;
71734;SDS011;59577;52.122;5.406;2023-04-06T08:03:35;18.13;;;10.13;;
71734;SDS011;59577;52.122;5.406;2023-04-06T08:06:02;20.23;;;9.82;;
71734;SDS011;59577;52.122;5.406;2023-04-06T08:08:29;21.52;;;10.80;;
71734;SDS011;59577;52.122;5.406;2023-04-06T08:10:56;17.17;;;9.68;;
71734;SDS011;59577;52.122;5.406;2023-04-06T08:13:26;20.20;;;10.23;;
71734;SDS011;59577;52.122;5.406;2023-04-06T08:15:54;19.70;;;10.90;;
71734;SDS011;59577;52.122;5.406;2023-04-06T08:18:21;18.08;;;9.82;;
71734;SDS011;59577;52.122;5.406;2023-04-06T08:20:47;18.80;;;10.77;;
71734;SDS011;59577;52.122;5.406;2023-04-06T08:23:15;18.55;;;10.20;;
71734;SDS011;59577;52.122;5.406;2023-04-06T08:25:42;15.90;;;9.57;;
71734;SDS011;59577;52.122;5.406;2023-04-06T08:28:15;23.50;;;10.77;;
71734;SDS011;59577;52.122;5.406;2023-04-06T08:30:42;21.63;;;10.15;;
71734;SDS011;59577;52.122;5.406;2023-04-06T08:33:09;20.85;;;10.88;;
71734;SDS011;59577;52.122;5.406;2023-04-06T08:35:36;19.98;;;10.52;;
71734;SDS011;59577;52.122;5.406;2023-04-06T08:38:03;21.85;;;10.93;;
71734;SDS011;59577;52.122;5.406;2023-04-06T08:40:29;17.77;;;10.60;;
71734;SDS011;59577;52.122;5.406;2023-04-06T08:42:56;21.80;;;10.65;;
71734;SDS011;59577;52.122;5.406;2023-04-06T08:45:25;23.65;;;10.23;;
71734;SDS011;59577;52.122;5.406;2023-04-06T08:47:52;25.83;;;11.00;;
71734;SDS011;59577;52.122;5.406;2023-04-06T08:50:20;21.83;;;11.10;;
71734;SDS011;59577;52.122;5.406;2023-04-06T08:52:48;19.53;;;10.63;;
71734;SDS011;59577;52.122;5.406;2023-04-06T08:55:15;19.58;;;10.48;;
71734;SDS011;59577;52.122;5.406;2023-04-06T08:57:42;20.35;;;10.50;;
71734;SDS011;59577;52.122;5.406;2023-04-06T09:00:10;22.55;;;11.38;;
71734;SDS011;59577;52.122;5.406;2023-04-06T09:02:42;18.80;;;11.38;;
71734;SDS011;59577;52.122;5.406;2023-04-06T09:05:11;22.10;;;11.40;;
71734;SDS011;59577;52.122;5.406;2023-04-06T09:07:39;22.80;;;11.02;;
71734;SDS011;59577;52.122;5.406;2023-04-06T09:10:05;20.95;;;11.60;;
71734;SDS011;59577;52.122;5.406;2023-04-06T09:12:33;26.08;;;10.90;;
71734;SDS011;59577;52.122;5.406;2023-04-06T09:15:00;24.30;;;10.80;;
71734;SDS011;59577;52.122;5.406;2023-04-06T09:17:31;24.30;;;11.53;;
71734;SDS011;59577;52.122;5.406;2023-04-06T09:20:03;16.88;;;10.40;;
71734;SDS011;59577;52.122;5.406;2023-04-06T09:22:36;24.67;;;11.93;;
71734;SDS011;59577;52.122;5.406;2023-04-06T09:25:03;20.35;;;11.27;;
71734;SDS011;59577;52.122;5.406;2023-04-06T09:27:34;20.73;;;11.20;;
71734;SDS011;59577;52.122;5.406;2023-04-06T09:30:08;20.60;;;11.23;;
71734;SDS011;59577;52.122;5.406;2023-04-06T09:32:49;21.75;;;11.73;;
71734;SDS011;59577;52.122;5.406;2023-04-06T09:35:17;22.33;;;12.02;;
71734;SDS011;59577;52.122;5.406;2023-04-06T09:37:46;22.15;;;11.35;;
71734;SDS011;59577;52.122;5.406;2023-04-06T09:40:14;21.60;;;11.00;;
71734;SDS011;59577;52.122;5.406;2023-04-06T09:42:41;19.93;;;11.77;;
71734;SDS011;59577;52.122;5.406;2023-04-06T09:45:08;20.67;;;11.68;;
71734;SDS011;59577;52.122;5.406;2023-04-06T09:47:35;22.80;;;11.60;;
71734;SDS011;59577;52.122;5.406;2023-04-06T09:50:03;19.95;;;11.98;;
71734;SDS011;59577;52.122;5.406;2023-04-06T09:52:41;20.33;;;11.27;;
71734;SDS011;59577;52.122;5.406;2023-04-06T09:55:12;20.93;;;11.27;;
71734;SDS011;59577;52.122;5.406;2023-04-06T09:58:04;26.77;;;12.98;;
71734;SDS011;59577;52.122;5.406;2023-04-06T10:03:36;22.27;;;12.07;;
71734;SDS011;59577;52.122;5.406;2023-04-06T10:06:10;26.08;;;11.80;;
71734;SDS011;59577;52.122;5.406;2023-04-06T10:08:40;25.17;;;12.27;;
71734;SDS011;59577;52.122;5.406;2023-04-06T10:11:22;31.70;;;13.13;;
71734;SDS011;59577;52.122;5.406;2023-04-06T10:13:49;21.17;;;10.80;;
71734;SDS011;59577;52.122;5.406;2023-04-06T10:16:16;19.70;;;10.85;;
71734;SDS011;59577;52.122;5.406;2023-04-06T10:18:45;20.70;;;11.45;;
71734;SDS011;59577;52.122;5.406;2023-04-06T10:21:16;23.20;;;11.27;;
71734;SDS011;59577;52.122;5.406;2023-04-06T10:23:48;18.27;;;9.52;;
71734;SDS011;59577;52.122;5.406;2023-04-06T10:26:19;18.10;;;8.73;;
71734;SDS011;59577;52.122;5.406;2023-04-06T10:28:47;16.13;;;9.65;;
71734;SDS011;59577;52.122;5.406;2023-04-06T10:31:15;16.73;;;9.07;;
71734;SDS011;59577;52.122;5.406;2023-04-06T10:33:56;15.37;;;8.67;;
71734;SDS011;59577;52.122;5.406;2023-04-06T10:36:24;12.73;;;8.05;;
71734;SDS011;59577;52.122;5.406;2023-04-06T10:38:56;13.35;;;6.63;;
71734;SDS011;59577;52.122;5.406;2023-04-06T10:41:31;16.73;;;7.00;;
71734;SDS011;59577;52.122;5.406;2023-04-06T10:43:59;10.55;;;7.43;;
71734;SDS011;59577;52.122;5.406;2023-04-06T10:46:28;9.93;;;5.40;;
71734;SDS011;59577;52.122;5.406;2023-04-06T10:48:56;10.77;;;5.03;;
71734;SDS011;59577;52.122;5.406;2023-04-06T10:51:26;6.63;;;4.35;;
71734;SDS011;59577;52.122;5.406;2023-04-06T10:53:54;8.45;;;4.60;;
71734;SDS011;59577;52.122;5.406;2023-04-06T10:56:25;5.95;;;3.72;;
71734;SDS011;59577;52.122;5.406;2023-04-06T10:59:00;5.83;;;3.83;;
71734;SDS011;59577;52.122;5.406;2023-04-06T11:01:27;6.15;;;4.10;;
71734;SDS011;59577;52.122;5.406;2023-04-06T11:03:54;5.50;;;4.00;;
71734;SDS011;59577;52.122;5.406;2023-04-06T11:06:23;5.00;;;3.72;;
71734;SDS011;59577;52.122;5.406;2023-04-06T11:08:51;8.13;;;3.90;;
71734;SDS011;59577;52.122;5.406;2023-04-06T11:11:22;6.23;;;3.37;;
71734;SDS011;59577;52.122;5.406;2023-04-06T11:13:52;5.82;;;3.53;;
71734;SDS011;59577;52.122;5.406;2023-04-06T11:16:24;5.68;;;3.67;;
71734;SDS011;59577;52.122;5.406;2023-04-06T11:21:41;6.30;;;3.30;;
71734;SDS011;59577;52.122;5.406;2023-04-06T11:26:45;6.18;;;3.33;;
71734;SDS011;59577;52.122;5.406;2023-04-06T11:29:15;8.82;;;3.30;;
71734;SDS011;59577;52.122;5.406;2023-04-06T11:31:50;7.28;;;3.47;;
71734;SDS011;59577;52.122;5.406;2023-04-06T11:34:19;5.25;;;3.35;;
71734;SDS011;59577;52.122;5.406;2023-04-06T11:36:47;4.97;;;3.47;;
71734;SDS011;59577;52.122;5.406;2023-04-06T11:39:19;6.40;;;3.80;;
71734;SDS011;59577;52.122;5.406;2023-04-06T11:41:47;6.30;;;2.85;;
71734;SDS011;59577;52.122;5.406;2023-04-06T11:44:14;4.80;;;3.35;;
71734;SDS011;59577;52.122;5.406;2023-04-06T11:46:51;4.20;;;2.97;;
71734;SDS011;59577;52.122;5.406;2023-04-06T11:49:17;4.70;;;3.03;;
71734;SDS011;59577;52.122;5.406;2023-04-06T11:51:45;6.20;;;3.22;;
71734;SDS011;59577;52.122;5.406;2023-04-06T11:54:12;7.50;;;3.47;;
71734;SDS011;59577;52.122;5.406;2023-04-06T11:56:39;6.22;;;3.17;;
71734;SDS011;59577;52.122;5.406;2023-04-06T11:59:05;8.98;;;3.25;;
71734;SDS011;59577;52.122;5.406;2023-04-06T12:01:32;4.33;;;2.87;;
71734;SDS011;59577;52.122;5.406;2023-04-06T12:04:04;4.88;;;2.80;;
71734;SDS011;59577;52.122;5.406;2023-04-06T12:06:31;7.32;;;3.75;;
71734;SDS011;59577;52.122;5.406;2023-04-06T12:08:57;5.47;;;3.70;;
71734;SDS011;59577;52.122;5.406;2023-04-06T12:11:24;6.68;;;4.22;;
71734;SDS011;59577;52.122;5.406;2023-04-06T12:13:51;7.60;;;3.87;;
71734;SDS011;59577;52.122;5.406;2023-04-06T12:16:17;6.32;;;3.75;;
71734;SDS011;59577;52.122;5.406;2023-04-06T12:18:45;6.40;;;3.92;;
71734;SDS011;59577;52.122;5.406;2023-04-06T12:21:12;7.78;;;4.55;;
71734;SDS011;59577;52.122;5.406;2023-04-06T12:23:38;10.05;;;4.97;;
71734;SDS011;59577;52.122;5.406;2023-04-06T12:26:05;5.80;;;4.03;;
71734;SDS011;59577;52.122;5.406;2023-04-06T12:28:38;9.30;;;4.53;;
71734;SDS011;59577;52.122;5.406;2023-04-06T12:31:05;5.53;;;3.70;;
71734;SDS011;59577;52.122;5.406;2023-04-06T12:33:32;7.63;;;4.68;;
71734;SDS011;59577;52.122;5.406;2023-04-06T12:35:58;7.25;;;4.28;;
71734;SDS011;59577;52.122;5.406;2023-04-06T12:38:25;6.50;;;4.80;;
71734;SDS011;59577;52.122;5.406;2023-04-06T12:40:52;6.47;;;4.60;;
71734;SDS011;59577;52.122;5.406;2023-04-06T12:43:18;8.10;;;3.83;;
71734;SDS011;59577;52.122;5.406;2023-04-06T12:45:45;8.13;;;5.10;;
71734;SDS011;59577;52.122;5.406;2023-04-06T12:48:12;9.13;;;5.10;;
71734;SDS011;59577;52.122;5.406;2023-04-06T12:50:38;9.30;;;5.23;;
71734;SDS011;59577;52.122;5.406;2023-04-06T12:53:13;8.88;;;5.10;;
71734;SDS011;59577;52.122;5.406;2023-04-06T12:55:40;6.22;;;4.78;;
71734;SDS011;59577;52.122;5.406;2023-04-06T12:58:07;5.38;;;3.92;;
71734;SDS011;59577;52.122;5.406;2023-04-06T13:00:33;9.70;;;4.10;;
71734;SDS011;59577;52.122;5.406;2023-04-06T13:03:00;9.43;;;5.07;;
71734;SDS011;59577;52.122;5.406;2023-04-06T13:05:27;7.28;;;4.95;;
71734;SDS011;59577;52.122;5.406;2023-04-06T13:07:55;7.80;;;4.75;;
71734;SDS011;59577;52.122;5.406;2023-04-06T13:10:23;8.10;;;4.20;;
71734;SDS011;59577;52.122;5.406;2023-04-06T13:12:50;7.35;;;4.47;;
71734;SDS011;59577;52.122;5.406;2023-04-06T13:15:16;7.33;;;4.83;;
71734;SDS011;59577;52.122;5.406;2023-04-06T13:17:43;8.30;;;4.78;;
71734;SDS011;59577;52.122;5.406;2023-04-06T13:20:10;7.53;;;4.93;;
71734;SDS011;59577;52.122;5.406;2023-04-06T13:22:36;8.10;;;5.40;;
71734;SDS011;59577;52.122;5.406;2023-04-06T13:25:03;8.68;;;4.90;;
71734;SDS011;59577;52.122;5.406;2023-04-06T13:27:30;8.33;;;4.73;;
71734;SDS011;59577;52.122;5.406;2023-04-06T13:30:00;7.95;;;4.80;;
71734;SDS011;59577;52.122;5.406;2023-04-06T13:32:27;8.13;;;4.75;;
71734;SDS011;59577;52.122;5.406;2023-04-06T13:34:56;9.13;;;4.78;;
71734;SDS011;59577;52.122;5.406;2023-04-06T13:37:23;6.28;;;4.32;;
71734;SDS011;59577;52.122;5.406;2023-04-06T13:39:49;8.47;;;4.93;;
71734;SDS011;59577;52.122;5.406;2023-04-06T13:42:16;7.95;;;4.95;;
71734;SDS011;59577;52.122;5.406;2023-04-06T13:44:43;9.48;;;4.10;;
71734;SDS011;59577;52.122;5.406;2023-04-06T13:47:10;11.32;;;5.05;;
71734;SDS011;59577;52.122;5.406;2023-04-06T13:49:36;10.27;;;5.00;;
71734;SDS011;59577;52.122;5.406;2023-04-06T13:52:03;9.27;;;5.20;;
71734;SDS011;59577;52.122;5.406;2023-04-06T13:54:30;7.65;;;4.90;;
71734;SDS011;59577;52.122;5.406;2023-04-06T13:56:56;8.73;;;5.55;;
71734;SDS011;59577;52.122;5.406;2023-04-06T13:59:23;6.35;;;4.35;;
71734;SDS011;59577;52.122;5.406;2023-04-06T14:01:49;8.65;;;4.88;;
71734;SDS011;59577;52.122;5.406;2023-04-06T14:04:16;9.90;;;5.30;;
71734;SDS011;59577;52.122;5.406;2023-04-06T14:06:44;7.25;;;5.18;;
71734;SDS011;59577;52.122;5.406;2023-04-06T14:09:11;8.57;;;5.28;;
71734;SDS011;59577;52.122;5.406;2023-04-06T14:11:38;7.70;;;4.68;;
71734;SDS011;59577;52.122;5.406;2023-04-06T14:14:04;8.30;;;5.38;;
71734;SDS011;59577;52.122;5.406;2023-04-06T14:16:31;13.80;;;5.40;;
71734;SDS011;59577;52.122;5.406;2023-04-06T14:18:58;9.13;;;5.50;;
71734;SDS011;59577;52.122;5.406;2023-04-06T14:21:25;9.32;;;5.75;;
71734;SDS011;59577;52.122;5.406;2023-04-06T14:23:52;10.38;;;5.25;;
71734;SDS011;59577;52.122;5.406;2023-04-06T14:26:20;11.98;;;5.75;;
71734;SDS011;59577;52.122;5.406;2023-04-06T14:28:47;8.87;;;5.20;;
71734;SDS011;59577;52.122;5.406;2023-04-06T14:31:13;11.27;;;5.63;;
71734;SDS011;59577;52.122;5.406;2023-04-06T14:33:41;10.27;;;6.00;;
71734;SDS011;59577;52.122;5.406;2023-04-06T14:36:08;9.05;;;5.75;;
71734;SDS011;59577;52.122;5.406;2023-04-06T14:38:35;8.60;;;5.43;;
71734;SDS011;59577;52.122;5.406;2023-04-06T14:41:02;9.07;;;5.57;;
71734;SDS011;59577;52.122;5.406;2023-04-06T14:43:28;9.20;;;5.78;;
71734;SDS011;59577;52.122;5.406;2023-04-06T14:45:59;6.70;;;5.45;;
71734;SDS011;59577;52.122;5.406;2023-04-06T14:48:27;8.85;;;5.05;;